Time;durP1;ratioP1;P1;durP2;ratioP2;P2;SDS_P1;SDS_P2;PMS_P1;PMS_P2;Temp;Humidity;BMP_temperature;BMP_pressure;BME280_temperature;BME280_humidity;BME280_pressure;Samples;Min_cycle;Max_cycle;Signal;HPM_P1;HPM_P2
2023/08/09 00:09:54;;;;;;;2.30;2.00;;;;;;;23.21;46.49;100458.63;41370736;28;20566;-71
2023/08/09 00:29:55;;;;;;;3.60;2.17;;;;;;;23.18;46.47;100464.19;41316278;28;20555;-73
2023/08/09 00:49:55;;;;;;;3.15;2.00;;;;;;;23.16;46.66;100453.75;41402565;28;20042;-71
2023/08/09 01:10:09;;;;;;;3.13;1.88;;;;;;;23.14;46.82;100455.66;41355724;28;20102;-70
2023/08/09 01:30:18;;;;;;;3.38;1.80;;;;;;;23.13;46.76;100458.41;41421249;28;20446;-71
2023/08/09 01:50:23;;;;;;;2.75;1.98;;;;;;;23.10;46.97;100453.41;41274443;28;20051;-70
2023/08/09 02:10:23;;;;;;;2.03;1.80;;;;;;;23.08;47.20;100448.22;41278975;28;20041;-72
2023/08/09 02:30:24;;;;;;;2.25;1.75;;;;;;;23.07;47.07;100458.94;41469346;28;20129;-72
2023/08/09 02:50:24;;;;;;;2.38;1.65;;;;;;;23.05;47.21;100477.56;41436560;28;20045;-71
2023/08/09 03:10:25;;;;;;;2.05;1.67;;;;;;;23.04;47.28;100481.16;41362930;28;22234;-71
2023/08/09 03:30:25;;;;;;;1.73;1.48;;;;;;;23.03;47.37;100490.03;41436638;28;20041;-71
2023/08/09 03:50:26;;;;;;;1.63;1.52;;;;;;;23.02;47.29;100494.50;41385420;28;20101;-70
2023/08/09 04:10:26;;;;;;;1.90;1.52;;;;;;;23.01;47.16;100499.91;41385475;28;21211;-71
2023/08/09 04:30:27;;;;;;;3.63;1.73;;;;;;;23.02;47.57;100506.84;41342713;28;20050;-76
2023/08/09 04:50:28;;;;;;;2.25;1.80;;;;;;;23.36;47.51;100504.03;41409537;28;20061;-77
2023/08/09 05:10:28;;;;;;;3.45;1.98;;;;;;;23.13;47.67;100498.03;41468225;28;20050;-76
2023/08/09 05:30:29;;;;;;;4.10;2.38;;;;;;;23.11;46.97;100518.47;41486486;28;20061;-77
2023/08/09 05:50:29;;;;;;;4.45;2.03;;;;;;;23.16;47.07;100516.28;41524201;28;20043;-76
2023/08/09 06:10:30;;;;;;;6.18;2.00;;;;;;;23.16;46.86;100514.50;41531164;28;20101;-73
2023/08/09 06:30:31;;;;;;;4.38;1.83;;;;;;;23.24;46.98;100516.50;41490602;28;20069;-75
2023/08/09 06:50:31;;;;;;;5.25;2.17;;;;;;;23.32;47.46;100519.31;41300427;28;20061;-74
2023/08/09 07:10:31;;;;;;;10.32;3.90;;;;;;;22.79;44.70;100516.69;41351416;28;20045;-76
2023/08/09 07:30:32;;;;;;;3.67;1.65;;;;;;;22.46;43.02;100510.56;41361962;28;20041;-79
2023/08/09 07:50:32;;;;;;;5.85;1.45;;;;;;;23.18;43.43;100495.91;41452368;28;20034;-77
2023/08/09 08:10:33;;;;;;;4.53;1.92;;;;;;;23.46;44.41;100497.03;41318033;28;20042;-77
2023/08/09 08:30:33;;;;;;;5.85;2.80;;;;;;;23.54;45.49;100504.28;41341672;28;20038;-81
2023/08/09 16:24:30;;;;;;;4.05;1.50;;;;;;;22.89;43.48;100375.03;41739851;28;20411;-76
2023/08/09 16:44:31;;;;;;;1.42;1.20;;;;;;;22.65;43.53;100384.03;41656164;28;20088;-75
2023/08/09 17:04:32;;;;;;;11.23;4.97;;;;;;;22.19;45.15;100393.94;41540767;28;20110;-79
2023/08/09 17:24:33;;;;;;;1.50;1.40;;;;;;;22.11;48.30;100399.00;41494000;28;20046;-78
2023/08/09 17:44:34;;;;;;;4.07;2.30;;;;;;;22.07;49.74;100423.97;41360573;28;20057;-74
2023/08/09 18:04:35;;;;;;;38.53;16.13;;;;;;;22.49;49.14;100346.72;41396226;28;20042;-78
2023/08/09 18:24:39;;;;;;;12.50;3.45;;;;;;;23.10;51.42;100475.38;41397753;28;20073;-79
2023/08/09 18:44:40;;;;;;;73.00;19.35;;;;;;;23.16;52.29;100485.44;41487565;28;20057;-75
2023/08/09 19:04:41;;;;;;;8.20;3.38;;;;;;;23.24;51.29;100481.31;41510643;28;20421;-76
2023/08/09 19:24:42;;;;;;;5.57;2.40;;;;;;;23.03;53.46;100512.03;41502095;28;20050;-74
2023/08/09 19:44:43;;;;;;;6.07;2.22;;;;;;;22.81;52.75;100514.75;41483231;28;20045;-78
2023/08/09 20:04:45;;;;;;;4.03;2.10;;;;;;;22.33;53.09;100494.88;41497447;28;20056;-80
2023/08/09 20:24:58;;;;;;;5.38;1.80;;;;;;;22.48;52.54;100511.28;41561475;28;20096;-78
2023/08/09 20:44:59;;;;;;;5.68;2.03;;;;;;;22.26;52.51;100515.59;41537939;28;20064;-78
2023/08/09 21:04:59;;;;;;;2.05;1.92;;;;;;;22.27;52.90;100534.94;41558070;28;20060;-79
2023/08/09 21:25:00;;;;;;;3.47;1.83;;;;;;;22.21;52.87;100544.16;41563865;28;20084;-74
2023/08/09 21:45:02;;;;;;;2.03;1.77;;;;;;;22.05;53.01;100555.91;41586264;28;20049;-80
2023/08/09 22:05:02;;;;;;;2.10;1.90;;;;;;;22.01;52.70;100556.28;41581821;28;20106;-79
2023/08/09 22:25:04;;;;;;;2.55;2.00;;;;;;;21.78;51.29;100545.72;41577661;28;20042;-79
2023/08/09 22:45:06;;;;;;;1.83;1.52;;;;;;;21.66;51.45;100568.59;41579244;28;20063;-76
2023/08/09 23:05:07;;;;;;;1.92;1.40;;;;;;;21.68;51.36;100561.41;41389765;28;20059;-81
2023/08/09 23:25:08;;;;;;;1.58;1.17;;;;;;;21.64;51.76;100561.75;41518842;28;20049;-80
2023/08/09 23:45:10;;;;;;;2.15;1.60;;;;;;;21.48;51.86;100535.72;41543572;28;20188;-76
